Time,TemperatureF,DewpointF,PressureIn,WindDirection,WindDirectionDegrees,WindSpeedMPH,WindSpeedGustMPH,Humidity,HourlyPrecipIn,Conditions,Clouds,dailyrainin,SoftwareType,DateUTC
2013-07-07 00:01:00,75.9,66.6,29.73,ESE,103,0.0,1.0,73,0.00,,SKC,0.00,VWS V14.01,2013-07-07 05:01:00,
2013-07-07 00:06:00,75.8,66.5,29.73,ESE,103,0.0,1.0,73,0.00,,SKC,0.00,VWS V14.01,2013-07-07 05:06:00,
2013-07-07 00:11:00,75.8,66.5,29.73,ESE,103,1.0,2.0,73,0.00,,SKC,0.00,VWS V14.01,2013-07-07 05:11:00,
2013-07-07 00:16:00,75.9,66.2,29.73,ESE,103,0.0,2.0,72,0.00,,SKC,0.00,VWS V14.01,2013-07-07 05:16:00,
2013-07-07 00:21:00,76.0,66.3,29.73,ESE,103,0.0,4.0,72,0.00,,SKC,0.00,VWS V14.01,2013-07-07 05:21:00,
2013-07-07 00:26:00,76.2,66.1,29.73,ESE,103,0.0,4.0,71,0.00,,SKC,0.00,VWS V14.01,2013-07-07 05:26:00,
2013-07-07 00:31:00,76.4,66.3,29.73,ESE,103,0.0,1.0,71,0.00,,SKC,0.00,VWS V14.01,2013-07-07 05:31:00,
2013-07-07 00:36:00,76.4,65.9,29.72,ESE,103,0.0,4.0,70,0.00,,SKC,0.00,VWS V14.01,2013-07-07 05:36:00,
2013-07-07 00:41:00,76.6,65.7,29.72,ESE,103,0.0,4.0,69,0.00,,SKC,0.00,VWS V14.01,2013-07-07 05:41:00,
2013-07-07 00:46:00,76.7,65.8,29.72,ESE,103,0.0,4.0,69,0.00,,SKC,0.00,VWS V14.01,2013-07-07 05:46:00,
2013-07-07 00:51:00,76.9,65.5,29.72,ESE,103,0.0,4.0,68,0.00,,SKC,0.00,VWS V14.01,2013-07-07 05:51:00,
2013-07-07 00:56:00,77.0,65.6,29.72,ESE,103,0.0,4.0,68,0.00,,SKC,0.00,VWS V14.01,2013-07-07 05:56:00,
2013-07-07 01:01:00,77.2,65.4,29.72,ESE,103,0.0,2.0,67,0.00,,SKC,0.00,VWS V14.01,2013-07-07 06:01:00,
2013-07-07 01:06:00,77.4,65.2,29.72,ESE,103,2.0,5.0,66,0.00,,SKC,0.00,VWS V14.01,2013-07-07 06:06:00,
2013-07-07 01:11:00,77.6,65.3,29.72,East,101,1.0,5.0,66,0.00,,SKC,0.00,VWS V14.01,2013-07-07 06:11:00,
2013-07-07 01:16:00,77.7,65.4,29.72,East,100,1.0,5.0,66,0.00,,SKC,0.00,VWS V14.01,2013-07-07 06:16:00,
2013-07-07 01:21:00,77.9,65.2,29.72,ESE,102,2.0,6.0,65,0.00,,SKC,0.00,VWS V14.01,2013-07-07 06:21:00,
2013-07-07 01:26:00,78.1,65.4,29.72,ESE,107,4.0,6.0,65,0.00,,SKC,0.00,VWS V14.01,2013-07-07 06:26:00,
2013-07-07 01:31:00,78.2,65.5,29.72,East,80,0.0,3.0,65,0.00,,SKC,0.00,VWS V14.01,2013-07-07 06:31:00,
2013-07-07 01:36:00,78.3,65.6,29.72,ESE,118,4.0,5.0,65,0.00,,SKC,0.00,VWS V14.01,2013-07-07 06:36:00,
2013-07-07 01:41:00,78.4,65.7,29.72,East,89,0.0,5.0,65,0.00,,SKC,0.00,VWS V14.01,2013-07-07 06:41:00,
2013-07-07 01:46:00,78.4,65.7,29.72,East,101,2.0,5.0,65,0.00,,SKC,0.00,VWS V14.01,2013-07-07 06:46:00,
2013-07-07 01:51:00,78.3,65.6,29.72,East,101,0.0,5.0,65,0.00,,SKC,0.00,VWS V14.01,2013-07-07 06:51:00,
2013-07-07 01:56:00,78.3,65.6,29.72,East,100,0.0,5.0,65,0.00,,SKC,0.00,VWS V14.01,2013-07-07 06:56:00,
2013-07-07 02:01:00,78.2,65.5,29.73,East,100,0.0,1.0,65,0.00,,SKC,0.00,VWS V14.01,2013-07-07 07:01:00,
2013-07-07 02:06:00,78.0,65.7,29.72,East,100,0.0,1.0,66,0.00,,SKC,0.00,VWS V14.01,2013-07-07 07:06:00,
2013-07-07 02:11:00,77.9,65.6,29.72,East,100,0.0,4.0,66,0.00,,SKC,0.00,VWS V14.01,2013-07-07 07:11:00,
2013-07-07 02:16:00,77.8,66.0,29.73,East,100,0.0,4.0,67,0.00,,SKC,0.00,VWS V14.01,2013-07-07 07:16:00,
2013-07-07 02:21:00,77.6,65.8,29.72,ESE,120,0.0,4.0,67,0.00,,SKC,0.00,VWS V14.01,2013-07-07 07:21:00,
2013-07-07 02:26:00,77.4,65.6,29.72,ESE,120,0.0,4.0,67,0.00,,SKC,0.00,VWS V14.01,2013-07-07 07:26:00,
2013-07-07 02:31:00,77.2,65.8,29.72,ESE,120,0.0,0.0,68,0.00,,SKC,0.00,VWS V14.01,2013-07-07 07:31:00,
2013-07-07 02:36:00,77.1,65.7,29.73,ESE,119,0.0,2.0,68,0.00,,SKC,0.00,VWS V14.01,2013-07-07 07:36:00,
2013-07-07 02:41:00,77.0,66.1,29.72,ESE,119,0.0,4.0,69,0.00,,SKC,0.00,VWS V14.01,2013-07-07 07:41:00,
2013-07-07 02:46:00,76.8,65.9,29.73,ESE,119,0.0,4.0,69,0.00,,SKC,0.00,VWS V14.01,2013-07-07 07:46:00,
2013-07-07 02:51:00,76.7,66.2,29.73,ESE,119,0.0,4.0,70,0.00,,SKC,0.00,VWS V14.01,2013-07-07 07:51:00,
2013-07-07 02:56:00,76.6,66.1,29.73,ESE,119,0.0,4.0,70,0.00,,SKC,0.00,VWS V14.01,2013-07-07 07:56:00,
2013-07-07 03:01:00,76.5,66.0,29.72,ESE,119,0.0,1.0,70,0.00,,SKC,0.00,VWS V14.01,2013-07-07 08:01:00,
2013-07-07 03:06:00,76.3,66.2,29.73,ESE,119,0.0,1.0,71,0.00,,SKC,0.00,VWS V14.01,2013-07-07 08:06:00,
2013-07-07 03:11:00,76.1,66.0,29.73,ESE,119,0.0,1.0,71,0.00,,SKC,0.00,VWS V14.01,2013-07-07 08:11:00,
2013-07-07 03:16:00,76.0,66.3,29.73,ESE,119,0.0,1.0,72,0.00,,SKC,0.00,VWS V14.01,2013-07-07 08:16:00,
2013-07-07 03:21:00,75.7,66.0,29.73,ESE,119,0.0,1.0,72,0.00,,SKC,0.00,VWS V14.01,2013-07-07 08:21:00,
2013-07-07 03:26:00,75.4,66.2,29.73,ESE,119,0.0,1.0,73,0.00,,SKC,0.00,VWS V14.01,2013-07-07 08:26:00,
2013-07-07 03:31:00,75.2,66.3,29.73,ESE,119,0.0,0.0,74,0.00,,SKC,0.00,VWS V14.01,2013-07-07 08:31:00,
2013-07-07 03:36:00,75.1,66.2,29.73,ESE,119,0.0,0.0,74,0.00,,SKC,0.00,VWS V14.01,2013-07-07 08:36:00,
2013-07-07 03:41:00,75.0,66.6,29.73,ESE,119,0.0,0.0,75,0.00,,SKC,0.00,VWS V14.01,2013-07-07 08:41:00,
2013-07-07 03:46:00,74.9,66.4,29.74,ESE,119,0.0,0.0,75,0.00,,SKC,0.00,VWS V14.01,2013-07-07 08:46:00,
2013-07-07 03:51:00,74.7,66.6,29.73,ESE,119,0.0,0.0,76,0.00,,SKC,0.00,VWS V14.01,2013-07-07 08:51:00,
2013-07-07 03:56:00,74.6,66.5,29.73,ESE,119,0.0,0.0,76,0.00,,SKC,0.00,VWS V14.01,2013-07-07 08:56:00,
2013-07-07 04:01:00,74.4,66.7,29.73,ESE,119,0.0,0.0,77,0.00,,SKC,0.00,VWS V14.01,2013-07-07 09:01:00,
2013-07-07 04:06:00,74.2,66.5,29.73,ESE,119,0.0,0.0,77,0.00,,SKC,0.00,VWS V14.01,2013-07-07 09:06:00,
2013-07-07 04:11:00,74.0,66.7,29.74,ESE,119,0.0,0.0,78,0.00,,SKC,0.00,VWS V14.01,2013-07-07 09:11:00,
2013-07-07 04:16:00,73.9,66.6,29.73,ESE,119,0.0,0.0,78,0.00,,SKC,0.00,VWS V14.01,2013-07-07 09:16:00,
2013-07-07 04:21:00,73.8,66.9,29.73,ESE,119,0.0,0.0,79,0.00,,SKC,0.00,VWS V14.01,2013-07-07 09:21:00,
2013-07-07 04:26:00,73.7,66.8,29.74,ESE,119,0.0,0.0,79,0.00,,SKC,0.00,VWS V14.01,2013-07-07 09:26:00,
2013-07-07 04:31:00,73.5,66.6,29.74,ESE,119,0.0,0.0,79,0.00,,SKC,0.00,VWS V14.01,2013-07-07 09:31:00,
2013-07-07 04:36:00,73.3,66.8,29.74,ESE,119,0.0,0.0,80,0.00,,SKC,0.00,VWS V14.01,2013-07-07 09:36:00,
2013-07-07 04:41:00,73.2,66.7,29.74,ESE,119,0.0,0.0,80,0.00,,SKC,0.00,VWS V14.01,2013-07-07 09:41:00,
2013-07-07 04:46:00,73.3,66.8,29.74,ESE,119,0.0,0.0,80,0.00,,SKC,0.00,VWS V14.01,2013-07-07 09:46:00,
2013-07-07 04:51:00,73.5,67.0,29.74,ESE,119,0.0,0.0,80,0.00,,SKC,0.00,VWS V14.01,2013-07-07 09:51:00,
2013-07-07 04:56:00,73.7,66.8,29.74,ESE,119,0.0,0.0,79,0.00,,SKC,0.00,VWS V14.01,2013-07-07 09:56:00,
2013-07-07 05:01:00,73.8,66.9,29.74,ESE,119,0.0,0.0,79,0.00,,SKC,0.00,VWS V14.01,2013-07-07 10:01:00,
2013-07-07 05:06:00,73.8,66.9,29.74,ESE,119,0.0,0.0,79,0.00,,SKC,0.00,VWS V14.01,2013-07-07 10:06:00,
2013-07-07 05:11:00,73.8,66.9,29.74,ESE,119,0.0,0.0,79,0.00,,SKC,0.00,VWS V14.01,2013-07-07 10:11:00,
2013-07-07 05:16:00,73.8,66.9,29.74,ESE,119,0.0,0.0,79,0.00,,SKC,0.00,VWS V14.01,2013-07-07 10:16:00,
2013-07-07 05:21:00,73.7,66.8,29.74,ESE,119,0.0,0.0,79,0.00,,SKC,0.00,VWS V14.01,2013-07-07 10:21:00,
2013-07-07 05:26:00,73.7,67.2,29.74,ESE,119,0.0,0.0,80,0.00,,SKC,0.00,VWS V14.01,2013-07-07 10:26:00,
2013-07-07 05:31:00,73.6,67.1,29.74,ESE,119,0.0,0.0,80,0.00,,SKC,0.00,VWS V14.01,2013-07-07 10:31:00,
2013-07-07 05:36:00,73.6,67.1,29.74,ESE,119,0.0,0.0,80,0.00,,SKC,0.00,VWS V14.01,2013-07-07 10:36:00,
2013-07-07 05:41:00,73.6,67.1,29.74,ESE,119,0.0,0.0,80,0.00,,SKC,0.00,VWS V14.01,2013-07-07 10:41:00,
2013-07-07 05:46:00,73.6,67.4,29.74,ESE,119,0.0,0.0,81,0.00,,SKC,0.00,VWS V14.01,2013-07-07 10:46:00,
2013-07-07 05:51:00,73.6,67.4,29.74,ESE,105,0.0,0.0,81,0.00,,SKC,0.00,VWS V14.01,2013-07-07 10:51:00,
2013-07-07 05:56:00,73.5,67.3,29.74,ESE,105,0.0,0.0,81,0.00,,SKC,0.00,VWS V14.01,2013-07-07 10:56:00,
2013-07-07 06:01:00,73.4,67.6,29.74,ESE,105,0.0,0.0,82,0.00,,SKC,0.00,VWS V14.01,2013-07-07 11:01:00,
2013-07-07 06:06:00,73.4,67.6,29.74,ESE,105,0.0,0.0,82,0.00,,SKC,0.00,VWS V14.01,2013-07-07 11:06:00,
2013-07-07 06:11:00,73.4,67.6,29.74,ESE,105,0.0,0.0,82,0.00,,SKC,0.00,VWS V14.01,2013-07-07 11:11:00,
2013-07-07 06:16:00,73.5,67.7,29.74,ESE,105,0.0,0.0,82,0.00,,SKC,0.00,VWS V14.01,2013-07-07 11:16:00,
2013-07-07 06:21:00,73.4,67.6,29.74,ESE,105,0.0,0.0,82,0.00,,SKC,0.00,VWS V14.01,2013-07-07 11:21:00,
2013-07-07 06:26:00,73.5,67.7,29.74,ESE,105,0.0,0.0,82,0.00,,SKC,0.00,VWS V14.01,2013-07-07 11:26:00,
2013-07-07 06:31:00,73.6,68.1,29.74,ESE,105,0.0,0.0,83,0.00,,SKC,0.00,VWS V14.01,2013-07-07 11:31:00,
2013-07-07 06:36:00,73.6,68.1,29.74,ESE,105,0.0,0.0,83,0.00,,SKC,0.00,VWS V14.01,2013-07-07 11:36:00,
2013-07-07 06:41:00,73.6,68.1,29.74,ESE,105,0.0,0.0,83,0.00,,SKC,0.00,VWS V14.01,2013-07-07 11:41:00,
2013-07-07 06:46:00,73.7,68.2,29.74,ESE,105,0.0,0.0,83,0.00,,SKC,0.00,VWS V14.01,2013-07-07 11:46:00,
2013-07-07 06:51:00,73.9,68.4,29.74,ESE,105,0.0,0.0,83,0.00,,SKC,0.00,VWS V14.01,2013-07-07 11:51:00,
2013-07-07 06:56:00,74.0,68.5,29.74,ESE,105,0.0,0.0,83,0.00,,SKC,0.00,VWS V14.01,2013-07-07 11:56:00,
2013-07-07 07:01:00,74.1,68.6,29.74,ESE,105,0.0,0.0,83,0.00,,SKC,0.00,VWS V14.01,2013-07-07 12:01:00,
2013-07-07 07:06:00,74.2,68.7,29.74,ESE,105,0.0,0.0,83,0.00,,SKC,0.00,VWS V14.01,2013-07-07 12:06:00,
2013-07-07 07:11:00,74.5,69.0,29.74,ESE,105,0.0,0.0,83,0.00,,SKC,0.00,VWS V14.01,2013-07-07 12:11:00,
2013-07-07 07:16:00,74.9,69.0,29.74,ESE,105,0.0,0.0,82,0.00,,SKC,0.00,VWS V14.01,2013-07-07 12:16:00,
2013-07-07 07:21:00,75.4,69.2,29.74,South,169,0.0,0.0,81,0.00,,SKC,0.00,VWS V14.01,2013-07-07 12:21:00,
2013-07-07 07:26:00,76.0,69.4,29.74,South,169,0.0,0.0,80,0.00,,SKC,0.00,VWS V14.01,2013-07-07 12:26:00,
2013-07-07 07:31:00,76.5,69.5,29.74,South,169,0.0,0.0,79,0.00,,SKC,0.00,VWS V14.01,2013-07-07 12:31:00,
2013-07-07 07:36:00,77.0,70.0,29.74,South,169,0.0,0.0,79,0.00,,SKC,0.00,VWS V14.01,2013-07-07 12:36:00,
2013-07-07 07:41:00,77.4,69.6,29.74,South,169,0.0,0.0,77,0.00,,SKC,0.00,VWS V14.01,2013-07-07 12:41:00,
2013-07-07 07:46:00,77.8,69.6,29.75,West,269,0.0,1.0,76,0.00,,SKC,0.00,VWS V14.01,2013-07-07 12:46:00,
2013-07-07 07:51:00,78.0,69.8,29.75,West,273,1.0,1.0,76,0.00,,SKC,0.00,VWS V14.01,2013-07-07 12:51:00,
2013-07-07 07:56:00,78.4,70.2,29.74,West,273,0.0,1.0,76,0.00,,SKC,0.00,VWS V14.01,2013-07-07 12:56:00,
2013-07-07 08:01:00,78.6,69.6,29.75,East,92,0.0,4.0,74,0.00,,SKC,0.00,VWS V14.01,2013-07-07 13:01:00,
2013-07-07 08:06:00,78.8,69.8,29.75,East,101,0.0,4.0,74,0.00,,SKC,0.00,VWS V14.01,2013-07-07 13:06:00,
2013-07-07 08:11:00,79.1,70.1,29.75,North,5,0.0,4.0,74,0.00,,SKC,0.00,VWS V14.01,2013-07-07 13:11:00,
2013-07-07 08:16:00,79.5,70.5,29.75,East,91,1.0,4.0,74,0.00,,SKC,0.00,VWS V14.01,2013-07-07 13:16:00,
2013-07-07 08:21:00,79.7,70.7,29.75,NNW,340,1.0,4.0,74,0.00,,SKC,0.00,VWS V14.01,2013-07-07 13:21:00,
2013-07-07 08:26:00,79.9,70.5,29.75,SE,143,0.0,4.0,73,0.00,,SKC,0.00,VWS V14.01,2013-07-07 13:26:00,
2013-07-07 08:31:00,80.0,70.6,29.75,ESE,118,0.0,5.0,73,0.00,,SKC,0.00,VWS V14.01,2013-07-07 13:31:00,
2013-07-07 08:36:00,80.3,70.5,29.75,ESE,121,0.0,5.0,72,0.00,,SKC,0.00,VWS V14.01,2013-07-07 13:36:00,
2013-07-07 08:41:00,80.7,70.4,29.75,ESE,110,0.0,5.0,71,0.00,,SKC,0.00,VWS V14.01,2013-07-07 13:41:00,
2013-07-07 08:46:00,80.8,70.5,29.75,West,271,0.0,5.0,71,0.00,,SKC,0.00,VWS V14.01,2013-07-07 13:46:00,
2013-07-07 08:51:00,80.9,70.6,29.75,SE,132,1.0,5.0,71,0.00,,SKC,0.00,VWS V14.01,2013-07-07 13:51:00,
2013-07-07 08:56:00,80.8,70.9,29.75,SW,219,0.0,5.0,72,0.00,,SKC,0.00,VWS V14.01,2013-07-07 13:56:00,
2013-07-07 09:01:00,80.9,71.0,29.75,WSW,239,0.0,1.0,72,0.00,,SKC,0.00,VWS V14.01,2013-07-07 14:01:00,
2013-07-07 09:06:00,81.0,70.7,29.75,East,87,0.0,3.0,71,0.00,,SKC,0.00,VWS V14.01,2013-07-07 14:06:00,
2013-07-07 09:11:00,81.2,71.3,29.75,ESE,103,0.0,6.0,72,0.00,,SKC,0.00,VWS V14.01,2013-07-07 14:11:00,
2013-07-07 09:16:00,81.7,71.4,29.75,ESE,103,0.0,6.0,71,0.00,,SKC,0.00,VWS V14.01,2013-07-07 14:16:00,
2013-07-07 09:21:00,82.1,70.9,29.75,ESE,113,0.0,6.0,69,0.00,,SKC,0.00,VWS V14.01,2013-07-07 14:21:00,
2013-07-07 09:26:00,82.1,70.9,29.75,WSW,242,0.0,7.0,69,0.00,,SKC,0.00,VWS V14.01,2013-07-07 14:26:00,
2013-07-07 09:31:00,82.1,71.3,29.75,SE,128,1.0,4.0,70,0.00,,SKC,0.00,VWS V14.01,2013-07-07 14:31:00,
2013-07-07 09:36:00,82.2,71.0,29.75,ESE,118,0.0,5.0,69,0.00,,SKC,0.00,VWS V14.01,2013-07-07 14:36:00,
2013-07-07 09:41:00,82.4,72.1,29.75,ESE,116,0.0,5.0,71,0.00,,SKC,0.00,VWS V14.01,2013-07-07 14:41:00,
2013-07-07 09:46:00,82.2,71.0,29.75,ESE,123,0.0,6.0,69,0.00,,SKC,0.00,VWS V14.01,2013-07-07 14:46:00,
2013-07-07 09:51:00,81.7,71.4,29.75,ESE,119,1.0,6.0,71,0.00,,SKC,0.00,VWS V14.01,2013-07-07 14:51:00,
2013-07-07 09:56:00,81.6,71.3,29.75,ESE,117,0.0,6.0,71,0.00,,SKC,0.00,VWS V14.01,2013-07-07 14:56:00,
2013-07-07 10:01:00,81.6,71.7,29.75,ESE,114,0.0,4.0,72,0.00,,SKC,0.00,VWS V14.01,2013-07-07 15:01:00,
2013-07-07 10:06:00,81.7,71.4,29.75,ESE,123,0.0,5.0,71,0.00,,SKC,0.00,VWS V14.01,2013-07-07 15:06:00,
2013-07-07 10:11:00,81.7,71.8,29.75,ESE,114,0.0,6.0,72,0.00,,SKC,0.00,VWS V14.01,2013-07-07 15:11:00,
2013-07-07 10:16:00,82.1,71.8,29.75,SSE,147,0.0,6.0,71,0.00,,SKC,0.00,VWS V14.01,2013-07-07 15:16:00,
2013-07-07 10:21:00,82.5,71.7,29.75,WSW,244,0.0,6.0,70,0.00,,SKC,0.00,VWS V14.01,2013-07-07 15:21:00,
2013-07-07 10:26:00,82.7,71.1,29.75,ESE,115,0.0,6.0,68,0.00,,SKC,0.00,VWS V14.01,2013-07-07 15:26:00,
2013-07-07 10:31:00,83.1,71.4,29.75,ESE,114,6.0,7.0,68,0.00,,SKC,0.00,VWS V14.01,2013-07-07 15:31:00,
2013-07-07 10:36:00,83.1,71.9,29.75,ESE,123,0.0,7.0,69,0.00,,SKC,0.00,VWS V14.01,2013-07-07 15:36:00,
2013-07-07 10:41:00,83.2,71.6,29.75,ESE,117,0.0,7.0,68,0.00,,SKC,0.00,VWS V14.01,2013-07-07 15:41:00,
2013-07-07 10:46:00,83.6,71.9,29.75,ESE,120,4.0,7.0,68,0.00,,SKC,0.00,VWS V14.01,2013-07-07 15:46:00,
2013-07-07 10:51:00,83.8,72.1,29.75,ESE,115,5.0,7.0,68,0.00,,SKC,0.00,VWS V14.01,2013-07-07 15:51:00,
2013-07-07 10:56:00,83.9,72.7,29.75,SE,144,0.0,7.0,69,0.00,,SKC,0.00,VWS V14.01,2013-07-07 15:56:00,
2013-07-07 11:01:00,84.4,71.4,29.75,ESE,105,2.0,5.0,65,0.00,,SKC,0.00,VWS V14.01,2013-07-07 16:01:00,
2013-07-07 11:06:00,84.2,71.6,29.75,ESE,105,0.0,5.0,66,0.00,,SKC,0.00,VWS V14.01,2013-07-07 16:06:00,
2013-07-07 11:11:00,84.1,72.0,29.75,ESE,109,0.0,5.0,67,0.00,,SKC,0.00,VWS V14.01,2013-07-07 16:11:00,
2013-07-07 11:16:00,83.7,71.6,29.75,ESE,109,0.0,5.0,67,0.00,,SKC,0.00,VWS V14.01,2013-07-07 16:16:00,
2013-07-07 11:21:00,83.7,72.0,29.75,ESE,109,0.0,5.0,68,0.00,,SKC,0.00,VWS V14.01,2013-07-07 16:21:00,
2013-07-07 11:26:00,83.6,71.9,29.75,ESE,109,0.0,5.0,68,0.00,,SKC,0.00,VWS V14.01,2013-07-07 16:26:00,
2013-07-07 11:31:00,83.4,72.6,29.75,ESE,109,0.0,0.0,70,0.00,,SKC,0.00,VWS V14.01,2013-07-07 16:31:00,
2013-07-07 11:36:00,83.6,72.4,29.75,ESE,109,0.0,0.0,69,0.00,,SKC,0.00,VWS V14.01,2013-07-07 16:36:00,
2013-07-07 11:41:00,84.0,72.7,29.75,ESE,109,0.0,1.0,69,0.00,,SKC,0.00,VWS V14.01,2013-07-07 16:41:00,
2013-07-07 11:46:00,84.5,72.8,29.75,ESE,108,0.0,1.0,68,0.00,,SKC,0.00,VWS V14.01,2013-07-07 16:46:00,
2013-07-07 11:51:00,84.6,72.0,29.74,West,261,0.0,3.0,66,0.00,,SKC,0.00,VWS V14.01,2013-07-07 16:51:00,
2013-07-07 11:56:00,84.9,72.3,29.75,ESE,111,5.0,8.0,66,0.00,,SKC,0.00,VWS V14.01,2013-07-07 16:56:00,
2013-07-07 12:01:00,85.3,72.7,29.75,SE,132,2.0,4.0,66,0.00,,SKC,0.00,VWS V14.01,2013-07-07 17:01:00,
2013-07-07 12:06:00,85.4,72.8,29.74,SE,134,0.0,4.0,66,0.00,,SKC,0.00,VWS V14.01,2013-07-07 17:06:00,
2013-07-07 12:11:00,85.9,72.3,29.75,ESE,112,2.0,7.0,64,0.00,,SKC,0.00,VWS V14.01,2013-07-07 17:11:00,
2013-07-07 12:16:00,85.9,72.3,29.75,ESE,110,0.0,7.0,64,0.00,,SKC,0.00,VWS V14.01,2013-07-07 17:16:00,
2013-07-07 12:21:00,86.1,73.0,29.75,ESE,109,0.0,7.0,65,0.00,,SKC,0.00,VWS V14.01,2013-07-07 17:21:00,
2013-07-07 12:26:00,86.5,72.9,29.75,ESE,113,4.0,7.0,64,0.00,,SKC,0.00,VWS V14.01,2013-07-07 17:26:00,
2013-07-07 12:31:00,86.8,73.2,29.75,ESE,102,0.0,5.0,64,0.00,,SKC,0.00,VWS V14.01,2013-07-07 17:31:00,
2013-07-07 12:36:00,86.8,73.6,29.75,ESE,112,1.0,5.0,65,0.00,,SKC,0.00,VWS V14.01,2013-07-07 17:36:00,
2013-07-07 12:41:00,86.8,73.2,29.75,ENE,75,0.0,5.0,64,0.00,,SKC,0.00,VWS V14.01,2013-07-07 17:41:00,
2013-07-07 12:46:00,87.0,72.4,29.75,ESE,106,6.0,6.0,62,0.00,,SKC,0.00,VWS V14.01,2013-07-07 17:46:00,
2013-07-07 12:51:00,87.1,73.0,29.75,SW,226,0.0,6.0,63,0.00,,SKC,0.00,VWS V14.01,2013-07-07 17:51:00,
2013-07-07 12:56:00,87.1,72.5,29.75,West,273,0.0,6.0,62,0.00,,SKC,0.00,VWS V14.01,2013-07-07 17:56:00,
2013-07-07 13:01:00,87.1,73.9,29.75,ESE,115,0.0,5.0,65,0.00,,SKC,0.00,VWS V14.01,2013-07-07 18:01:00,
2013-07-07 13:06:00,87.1,73.4,29.75,West,265,2.0,5.0,64,0.00,,SKC,0.00,VWS V14.01,2013-07-07 18:06:00,
2013-07-07 13:11:00,87.2,73.6,29.75,SSE,165,1.0,5.0,64,0.00,,SKC,0.00,VWS V14.01,2013-07-07 18:11:00,
2013-07-07 13:16:00,87.7,74.0,29.75,NE,38,0.0,5.0,64,0.00,,SKC,0.00,VWS V14.01,2013-07-07 18:16:00,
2013-07-07 13:21:00,87.8,72.7,29.75,ESE,113,0.0,5.0,61,0.00,,SKC,0.00,VWS V14.01,2013-07-07 18:21:00,
2013-07-07 13:26:00,87.7,72.6,29.75,West,260,1.0,5.0,61,0.00,,SKC,0.00,VWS V14.01,2013-07-07 18:26:00,
2013-07-07 13:31:00,87.5,72.9,29.75,East,88,3.0,3.0,62,0.00,,SKC,0.00,VWS V14.01,2013-07-07 18:31:00,
2013-07-07 13:36:00,87.4,72.8,29.76,ESE,115,0.0,6.0,62,0.00,,SKC,0.00,VWS V14.01,2013-07-07 18:36:00,
2013-07-07 13:41:00,87.4,72.8,29.76,South,178,2.0,6.0,62,0.00,,SKC,0.00,VWS V14.01,2013-07-07 18:41:00,
2013-07-07 13:46:00,87.2,73.6,29.76,SSW,200,0.0,6.0,64,0.00,,SKC,0.00,VWS V14.01,2013-07-07 18:46:00,
2013-07-07 13:51:00,87.5,73.4,29.76,SE,134,0.0,6.0,63,0.00,,SKC,0.00,VWS V14.01,2013-07-07 18:51:00,
2013-07-07 13:56:00,88.0,73.4,29.76,ESE,102,5.0,6.0,62,0.00,,SKC,0.00,VWS V14.01,2013-07-07 18:56:00,
2013-07-07 14:01:00,88.3,73.2,29.76,ESE,113,0.0,5.0,61,0.00,,SKC,0.00,VWS V14.01,2013-07-07 19:01:00,
2013-07-07 14:06:00,88.3,73.2,29.76,South,169,0.0,5.0,61,0.00,,SKC,0.00,VWS V14.01,2013-07-07 19:06:00,
2013-07-07 14:11:00,88.4,73.2,29.76,South,169,0.0,5.0,61,0.00,,SKC,0.00,VWS V14.01,2013-07-07 19:11:00,
2013-07-07 14:16:00,88.6,72.9,29.76,ESE,105,1.0,6.0,60,0.00,,SKC,0.00,VWS V14.01,2013-07-07 19:16:00,
2013-07-07 14:21:00,88.7,73.0,29.76,ESE,108,0.0,6.0,60,0.00,,SKC,0.00,VWS V14.01,2013-07-07 19:21:00,
2013-07-07 14:26:00,88.8,73.6,29.75,ESE,109,0.0,6.0,61,0.00,,SKC,0.00,VWS V14.01,2013-07-07 19:26:00,
2013-07-07 14:31:00,89.1,73.4,29.76,ESE,111,2.0,6.0,60,0.00,,SKC,0.00,VWS V14.01,2013-07-07 19:31:00,
2013-07-07 14:36:00,88.8,73.6,29.75,SE,140,0.0,6.0,61,0.00,,SKC,0.00,VWS V14.01,2013-07-07 19:36:00,
2013-07-07 14:41:00,88.6,73.4,29.75,ESE,107,0.0,6.0,61,0.00,,SKC,0.00,VWS V14.01,2013-07-07 19:41:00,
2013-07-07 14:46:00,88.2,74.0,29.75,ESE,111,1.0,6.0,63,0.00,,SKC,0.00,VWS V14.01,2013-07-07 19:46:00,
2013-07-07 14:51:00,88.2,74.0,29.74,SSE,167,5.0,6.0,63,0.00,,SKC,0.00,VWS V14.01,2013-07-07 19:51:00,
2013-07-07 14:56:00,88.5,74.3,29.74,SW,229,0.0,6.0,63,0.00,,SKC,0.00,VWS V14.01,2013-07-07 19:56:00,
2013-07-07 15:01:00,88.5,73.8,29.74,ESE,110,0.0,5.0,62,0.00,,SKC,0.00,VWS V14.01,2013-07-07 20:01:00,
2013-07-07 15:06:00,88.5,73.8,29.74,ESE,115,0.0,5.0,62,0.00,,SKC,0.00,VWS V14.01,2013-07-07 20:06:00,
2013-07-07 15:11:00,88.5,73.3,29.74,ENE,69,0.0,5.0,61,0.00,,SKC,0.00,VWS V14.01,2013-07-07 20:11:00,
2013-07-07 15:16:00,88.6,73.4,29.74,ESE,123,0.0,6.0,61,0.00,,SKC,0.00,VWS V14.01,2013-07-07 20:16:00,
2013-07-07 15:21:00,88.6,73.9,29.74,ESE,123,0.0,7.0,62,0.00,,SKC,0.00,VWS V14.01,2013-07-07 20:21:00,
2013-07-07 15:26:00,88.8,74.6,29.74,East,101,2.0,7.0,63,0.00,,SKC,0.00,VWS V14.01,2013-07-07 20:26:00,
2013-07-07 15:31:00,88.8,73.1,29.74,ESE,122,4.0,4.0,60,0.00,,SKC,0.00,VWS V14.01,2013-07-07 20:31:00,
2013-07-07 15:36:00,88.7,74.0,29.74,ESE,121,0.0,4.0,62,0.00,,SKC,0.00,VWS V14.01,2013-07-07 20:36:00,
2013-07-07 15:41:00,88.6,74.4,29.74,ESE,120,0.0,4.0,63,0.00,,SKC,0.00,VWS V14.01,2013-07-07 20:41:00,
2013-07-07 15:46:00,88.8,74.1,29.74,ESE,121,0.0,4.0,62,0.00,,SKC,0.00,VWS V14.01,2013-07-07 20:46:00,
2013-07-07 15:51:00,89.3,74.1,29.73,ESE,120,0.0,5.0,61,0.00,,SKC,0.00,VWS V14.01,2013-07-07 20:51:00,
2013-07-07 15:56:00,89.6,73.4,29.73,ESE,113,4.0,7.0,59,0.00,,SKC,0.00,VWS V14.01,2013-07-07 20:56:00,
2013-07-07 16:01:00,89.7,73.0,29.73,SE,126,1.0,4.0,58,0.00,,SKC,0.00,VWS V14.01,2013-07-07 21:01:00,
2013-07-07 16:06:00,90.0,73.2,29.74,ESE,119,1.0,4.0,58,0.00,,SKC,0.00,VWS V14.01,2013-07-07 21:06:00,
2013-07-07 16:11:00,90.2,73.9,29.74,ESE,119,0.0,4.0,59,0.00,,SKC,0.00,VWS V14.01,2013-07-07 21:11:00,
2013-07-07 16:16:00,90.4,74.1,29.74,ESE,118,0.0,4.0,59,0.00,,SKC,0.00,VWS V14.01,2013-07-07 21:16:00,
2013-07-07 16:21:00,90.2,73.9,29.74,ESE,118,0.0,4.0,59,0.00,,SKC,0.00,VWS V14.01,2013-07-07 21:21:00,
2013-07-07 16:26:00,90.2,73.4,29.73,ESE,118,1.0,4.0,58,0.00,,SKC,0.00,VWS V14.01,2013-07-07 21:26:00,
2013-07-07 16:31:00,90.1,73.3,29.73,ESE,117,0.0,0.0,58,0.00,,SKC,0.00,VWS V14.01,2013-07-07 21:31:00,
2013-07-07 16:36:00,90.2,74.4,29.73,ESE,117,0.0,1.0,60,0.00,,SKC,0.00,VWS V14.01,2013-07-07 21:36:00,
2013-07-07 16:41:00,89.9,73.7,29.73,SE,134,0.0,2.0,59,0.00,,SKC,0.00,VWS V14.01,2013-07-07 21:41:00,
2013-07-07 16:46:00,89.3,73.6,29.73,SE,134,0.0,2.0,60,0.00,,SKC,0.00,VWS V14.01,2013-07-07 21:46:00,
2013-07-07 16:51:00,88.8,73.6,29.73,SE,134,0.0,2.0,61,0.00,,SKC,0.00,VWS V14.01,2013-07-07 21:51:00,
2013-07-07 16:56:00,88.6,73.4,29.73,SE,133,0.0,2.0,61,0.00,,SKC,0.00,VWS V14.01,2013-07-07 21:56:00,
2013-07-07 17:01:00,88.4,73.7,29.73,SE,132,0.0,0.0,62,0.00,,SKC,0.00,VWS V14.01,2013-07-07 22:01:00,
2013-07-07 17:06:00,88.3,75.5,29.73,SE,133,0.0,0.0,66,0.00,,SKC,0.00,VWS V14.01,2013-07-07 22:06:00,
2013-07-07 17:11:00,88.1,75.8,29.72,SE,132,0.0,0.0,67,0.00,,SKC,0.00,VWS V14.01,2013-07-07 22:11:00,
2013-07-07 17:16:00,87.9,74.2,29.73,South,185,0.0,2.0,64,0.00,,SKC,0.00,VWS V14.01,2013-07-07 22:16:00,
2013-07-07 17:21:00,87.5,73.8,29.73,South,185,0.0,2.0,64,0.00,,SKC,0.00,VWS V14.01,2013-07-07 22:21:00,
2013-07-07 17:26:00,86.8,75.0,29.72,WSW,245,0.0,2.0,68,0.00,,SKC,0.00,VWS V14.01,2013-07-07 22:26:00,
2013-07-07 17:31:00,85.2,69.8,29.74,NNW,331,0.0,6.0,60,0.00,,SKC,0.00,VWS V14.01,2013-07-07 22:31:00,
2013-07-07 17:36:00,83.3,68.9,29.74,NW,319,4.0,8.0,62,0.00,,SKC,0.00,VWS V14.01,2013-07-07 22:36:00,
2013-07-07 17:41:00,81.5,68.2,29.74,West,269,1.0,8.0,64,0.00,,SKC,0.00,VWS V14.01,2013-07-07 22:41:00,
2013-07-07 17:46:00,80.0,68.1,29.74,NW,325,0.0,8.0,67,0.00,,SKC,0.00,VWS V14.01,2013-07-07 22:46:00,
2013-07-07 17:51:00,78.9,67.4,29.75,NW,304,0.0,8.0,68,0.00,,SKC,0.00,VWS V14.01,2013-07-07 22:51:00,
2013-07-07 17:56:00,78.0,67.0,29.75,WNW,284,6.0,11.0,69,0.00,,SKC,0.00,VWS V14.01,2013-07-07 22:56:00,
2013-07-07 18:01:00,77.1,67.8,29.77,WNW,296,4.0,7.0,73,0.00,,SKC,0.00,VWS V14.01,2013-07-07 23:01:00,
2013-07-07 18:06:00,75.1,67.8,29.79,NW,313,0.0,12.0,78,0.04,,SKC,0.04,VWS V14.01,2013-07-07 23:06:00,
2013-07-07 18:11:00,73.4,67.6,29.78,WNW,302,0.0,12.0,82,0.14,,SKC,0.14,VWS V14.01,2013-07-07 23:11:00,
2013-07-07 18:16:00,72.1,67.3,29.79,WSW,257,1.0,12.0,85,0.30,,SKC,0.30,VWS V14.01,2013-07-07 23:16:00,
2013-07-07 18:21:00,71.0,67.3,29.77,SE,128,2.0,12.0,88,0.45,,SKC,0.45,VWS V14.01,2013-07-07 23:21:00,
2013-07-07 18:26:00,70.2,66.8,29.75,East,89,0.0,12.0,89,0.48,,SKC,0.48,VWS V14.01,2013-07-07 23:26:00,
2013-07-07 18:31:00,69.7,66.6,29.75,East,90,0.0,0.0,90,0.49,,SKC,0.49,VWS V14.01,2013-07-07 23:31:00,
2013-07-07 18:36:00,69.4,66.7,29.75,East,90,0.0,0.0,91,0.49,,SKC,0.49,VWS V14.01,2013-07-07 23:36:00,
2013-07-07 18:41:00,69.4,67.3,29.76,East,90,0.0,2.0,93,0.49,,SKC,0.49,VWS V14.01,2013-07-07 23:41:00,
2013-07-07 18:46:00,69.3,67.2,29.76,East,90,0.0,2.0,93,0.49,,SKC,0.49,VWS V14.01,2013-07-07 23:46:00,
2013-07-07 18:51:00,69.3,67.5,29.77,East,90,0.0,2.0,94,0.49,,SKC,0.49,VWS V14.01,2013-07-07 23:51:00,
2013-07-07 18:56:00,69.2,67.4,29.78,East,90,0.0,2.0,94,0.49,,SKC,0.49,VWS V14.01,2013-07-07 23:56:00,
2013-07-07 19:01:00,69.2,67.4,29.78,East,90,0.0,0.0,94,0.49,,SKC,0.49,VWS V14.01,2013-07-08 00:01:00,
2013-07-07 19:06:00,69.2,67.4,29.79,East,90,0.0,0.0,94,0.50,,SKC,0.50,VWS V14.01,2013-07-08 00:06:00,
2013-07-07 19:11:00,69.1,67.3,29.78,East,90,0.0,0.0,94,0.50,,SKC,0.50,VWS V14.01,2013-07-08 00:11:00,
2013-07-07 19:16:00,69.1,67.6,29.78,East,90,0.0,0.0,95,0.51,,SKC,0.51,VWS V14.01,2013-07-08 00:16:00,
2013-07-07 19:21:00,69.0,67.5,29.78,NE,53,1.0,3.0,95,0.51,,SKC,0.51,VWS V14.01,2013-07-08 00:21:00,
2013-07-07 19:26:00,69.0,67.5,29.78,North,355,0.0,3.0,95,0.51,,SKC,0.51,VWS V14.01,2013-07-08 00:26:00,
2013-07-07 19:31:00,69.1,67.6,29.77,North,355,0.0,0.0,95,0.04,,SKC,0.52,VWS V14.01,2013-07-08 00:31:00,
2013-07-07 19:36:00,69.1,67.9,29.78,NE,39,1.0,1.0,96,0.05,,SKC,0.53,VWS V14.01,2013-07-08 00:36:00,
2013-07-07 19:41:00,69.2,68.0,29.79,East,99,0.0,4.0,96,0.06,,SKC,0.54,VWS V14.01,2013-07-08 00:41:00,
2013-07-07 19:46:00,69.3,68.1,29.79,East,99,0.0,4.0,96,0.06,,SKC,0.54,VWS V14.01,2013-07-08 00:46:00,
2013-07-07 19:51:00,69.4,68.2,29.80,East,99,0.0,4.0,96,0.06,,SKC,0.54,VWS V14.01,2013-07-08 00:51:00,
2013-07-07 19:56:00,69.5,68.3,29.79,East,99,0.0,4.0,96,0.07,,SKC,0.55,VWS V14.01,2013-07-08 00:56:00,
2013-07-07 20:01:00,69.6,68.4,29.78,East,99,0.0,0.0,96,0.06,,SKC,0.55,VWS V14.01,2013-07-08 01:01:00,
2013-07-07 20:06:00,69.7,68.5,29.79,East,99,0.0,0.0,96,0.06,,SKC,0.55,VWS V14.01,2013-07-08 01:06:00,
2013-07-07 20:11:00,69.9,68.7,29.79,East,99,1.0,1.0,96,0.06,,SKC,0.55,VWS V14.01,2013-07-08 01:11:00,
2013-07-07 20:16:00,70.0,68.8,29.79,East,99,0.0,1.0,96,0.06,,SKC,0.55,VWS V14.01,2013-07-08 01:16:00,
2013-07-07 20:21:00,70.0,68.8,29.80,East,99,0.0,1.0,96,0.06,,SKC,0.55,VWS V14.01,2013-07-08 01:21:00,
2013-07-07 20:26:00,69.9,68.7,29.79,East,99,0.0,1.0,96,0.06,,SKC,0.55,VWS V14.01,2013-07-08 01:26:00,
2013-07-07 20:31:00,69.8,68.6,29.79,East,99,0.0,0.0,96,0.03,,SKC,0.55,VWS V14.01,2013-07-08 01:31:00,
2013-07-07 20:36:00,69.8,68.6,29.78,East,99,0.0,1.0,96,0.03,,SKC,0.55,VWS V14.01,2013-07-08 01:36:00,
2013-07-07 20:41:00,69.8,68.6,29.78,East,99,1.0,2.0,96,0.03,,SKC,0.55,VWS V14.01,2013-07-08 01:41:00,
2013-07-07 20:46:00,69.7,68.5,29.77,East,99,0.0,2.0,96,0.03,,SKC,0.55,VWS V14.01,2013-07-08 01:46:00,
2013-07-07 20:51:00,69.6,68.4,29.77,East,99,0.0,2.0,96,0.03,,SKC,0.55,VWS V14.01,2013-07-08 01:51:00,
2013-07-07 20:56:00,69.5,68.3,29.78,East,99,0.0,2.0,96,0.03,,SKC,0.55,VWS V14.01,2013-07-08 01:56:00,
2013-07-07 21:01:00,69.5,68.3,29.79,East,99,0.0,0.0,96,0.00,,SKC,0.55,VWS V14.01,2013-07-08 02:01:00,
2013-07-07 21:06:00,69.5,68.3,29.80,NNE,13,0.0,2.0,96,0.00,,SKC,0.55,VWS V14.01,2013-07-08 02:06:00,
2013-07-07 21:11:00,69.6,68.4,29.80,North,355,0.0,3.0,96,0.00,,SKC,0.55,VWS V14.01,2013-07-08 02:11:00,
2013-07-07 21:16:00,69.6,68.4,29.80,NW,314,0.0,4.0,96,0.00,,SKC,0.55,VWS V14.01,2013-07-08 02:16:00,
2013-07-07 21:21:00,69.6,68.7,29.81,NW,314,0.0,4.0,97,0.00,,SKC,0.55,VWS V14.01,2013-07-08 02:21:00,
2013-07-07 21:26:00,69.7,68.8,29.80,NW,314,0.0,4.0,97,0.00,,SKC,0.55,VWS V14.01,2013-07-08 02:26:00,
2013-07-07 21:31:00,69.6,68.7,29.80,NW,314,0.0,0.0,97,0.00,,SKC,0.55,VWS V14.01,2013-07-08 02:31:00,
2013-07-07 21:36:00,69.7,68.8,29.80,NW,314,0.0,0.0,97,0.00,,SKC,0.55,VWS V14.01,2013-07-08 02:36:00,
2013-07-07 21:41:00,69.6,68.7,29.79,NW,314,0.0,0.0,97,0.00,,SKC,0.55,VWS V14.01,2013-07-08 02:41:00,
2013-07-07 21:46:00,69.5,68.3,29.79,NW,314,0.0,0.0,96,0.00,,SKC,0.55,VWS V14.01,2013-07-08 02:46:00,
2013-07-07 21:51:00,69.4,68.2,29.78,NW,314,0.0,0.0,96,0.00,,SKC,0.55,VWS V14.01,2013-07-08 02:51:00,
2013-07-07 21:56:00,69.2,68.0,29.78,NW,314,0.0,0.0,96,0.00,,SKC,0.55,VWS V14.01,2013-07-08 02:56:00,
2013-07-07 22:01:00,69.0,67.8,29.79,NW,314,0.0,0.0,96,0.00,,SKC,0.55,VWS V14.01,2013-07-08 03:01:00,
2013-07-07 22:06:00,68.9,67.7,29.79,NW,314,0.0,0.0,96,0.00,,SKC,0.55,VWS V14.01,2013-07-08 03:06:00,
2013-07-07 22:11:00,68.8,67.6,29.79,NW,314,0.0,0.0,96,0.00,,SKC,0.55,VWS V14.01,2013-07-08 03:11:00,
2013-07-07 22:16:00,68.7,67.5,29.78,NW,314,0.0,0.0,96,0.00,,SKC,0.55,VWS V14.01,2013-07-08 03:16:00,
2013-07-07 22:21:00,68.6,67.4,29.78,NW,314,0.0,0.0,96,0.00,,SKC,0.55,VWS V14.01,2013-07-08 03:21:00,
2013-07-07 22:26:00,68.4,67.2,29.78,NW,314,0.0,0.0,96,0.00,,SKC,0.55,VWS V14.01,2013-07-08 03:26:00,
2013-07-07 22:31:00,68.4,67.5,29.78,NW,314,0.0,0.0,97,0.00,,SKC,0.55,VWS V14.01,2013-07-08 03:31:00,
2013-07-07 22:36:00,68.4,67.5,29.78,NW,314,0.0,0.0,97,0.00,,SKC,0.55,VWS V14.01,2013-07-08 03:36:00,
2013-07-07 22:41:00,68.4,67.5,29.79,NW,314,0.0,0.0,97,0.00,,SKC,0.55,VWS V14.01,2013-07-08 03:41:00,
2013-07-07 22:46:00,68.3,67.4,29.79,NW,314,0.0,0.0,97,0.00,,SKC,0.55,VWS V14.01,2013-07-08 03:46:00,
2013-07-07 22:51:00,68.1,66.9,29.80,NW,314,0.0,0.0,96,0.00,,SKC,0.55,VWS V14.01,2013-07-08 03:51:00,
2013-07-07 22:56:00,67.9,66.7,29.81,NW,314,0.0,0.0,96,0.00,,SKC,0.55,VWS V14.01,2013-07-08 03:56:00,
2013-07-07 23:01:00,67.8,66.9,29.81,NW,314,0.0,0.0,97,0.00,,SKC,0.55,VWS V14.01,2013-07-08 04:01:00,
2013-07-07 23:06:00,67.9,67.0,29.81,NW,314,0.0,0.0,97,0.00,,SKC,0.55,VWS V14.01,2013-07-08 04:06:00,
2013-07-07 23:11:00,68.0,67.1,29.81,East,80,1.0,4.0,97,0.00,,SKC,0.55,VWS V14.01,2013-07-08 04:11:00,
2013-07-07 23:16:00,68.0,67.1,29.81,ENE,73,0.0,4.0,97,0.00,,SKC,0.55,VWS V14.01,2013-07-08 04:16:00,
2013-07-07 23:21:00,67.8,66.9,29.81,ENE,73,0.0,4.0,97,0.00,,SKC,0.55,VWS V14.01,2013-07-08 04:21:00,
2013-07-07 23:26:00,67.6,66.4,29.81,ENE,73,0.0,4.0,96,0.00,,SKC,0.55,VWS V14.01,2013-07-08 04:26:00,
2013-07-07 23:31:00,67.3,66.1,29.81,ENE,73,0.0,0.0,96,0.00,,SKC,0.55,VWS V14.01,2013-07-08 04:31:00,
2013-07-07 23:36:00,66.9,65.7,29.81,NW,319,0.0,5.0,96,0.00,,SKC,0.55,VWS V14.01,2013-07-08 04:36:00,
2013-07-07 23:41:00,66.6,65.4,29.82,NW,319,0.0,5.0,96,0.00,,SKC,0.55,VWS V14.01,2013-07-08 04:41:00,
2013-07-07 23:46:00,66.4,65.2,29.82,NNW,347,0.0,5.0,96,0.00,,SKC,0.55,VWS V14.01,2013-07-08 04:46:00,
2013-07-07 23:51:00,66.1,64.9,29.82,NNE,19,0.0,5.0,96,0.00,,SKC,0.55,VWS V14.01,2013-07-08 04:51:00,
2013-07-07 23:56:00,65.9,64.7,29.82,NNE,19,0.0,5.0,96,0.00,,SKC,0.55,VWS V14.01,2013-07-08 04:56:00,